Time;durP1;ratioP1;P1;durP2;ratioP2;P2;SDS_P1;SDS_P2;PMS_P1;PMS_P2;Temp;Humidity;BMP_temperature;BMP_pressure;BME280_temperature;BME280_humidity;BME280_pressure;Samples;Min_cycle;Max_cycle;Signal;HPM_P1;HPM_P2
2022/03/13 00:01:42;;;;;;;10.40;5.75;;;;;;;;;;5065223;28;20056;-71
2022/03/13 00:04:08;;;;;;;9.35;5.50;;;;;;;;;;5065720;28;20123;-70
2022/03/13 00:06:37;;;;;;;8.45;5.55;;;;;;;;;;5064399;28;20534;-70
2022/03/13 00:09:05;;;;;;;8.90;5.45;;;;;;;;;;5066360;28;20041;-71
2022/03/13 00:11:31;;;;;;;9.18;5.60;;;;;;;;;;5064620;28;20037;-71
2022/03/13 00:13:58;;;;;;;9.60;5.93;;;;;;;;;;5065327;28;20078;-70
2022/03/13 00:16:25;;;;;;;9.07;5.63;;;;;;;;;;5064685;28;20046;-71
2022/03/13 00:18:51;;;;;;;8.77;5.38;;;;;;;;;;5048459;28;20481;-71
2022/03/13 00:21:18;;;;;;;9.13;5.63;;;;;;;;;;5064097;28;20052;-70
2022/03/13 00:23:44;;;;;;;9.57;5.82;;;;;;;;;;5065535;28;20128;-70
2022/03/13 00:26:11;;;;;;;9.73;5.85;;;;;;;;;;5064301;28;20143;-71
2022/03/13 00:28:37;;;;;;;9.27;5.57;;;;;;;;;;5064871;28;20132;-70
2022/03/13 00:31:04;;;;;;;8.73;5.68;;;;;;;;;;5063315;28;20135;-71
2022/03/13 00:33:31;;;;;;;9.00;5.63;;;;;;;;;;5065139;28;20044;-70
2022/03/13 00:35:57;;;;;;;10.20;5.55;;;;;;;;;;5064418;28;20040;-71
2022/03/13 00:38:25;;;;;;;8.38;5.53;;;;;;;;;;5066188;28;20580;-70
2022/03/13 00:40:51;;;;;;;8.07;5.65;;;;;;;;;;5065543;28;20124;-70
2022/03/13 00:43:18;;;;;;;9.80;6.20;;;;;;;;;;5064788;28;20123;-70
2022/03/13 00:45:44;;;;;;;8.98;5.68;;;;;;;;;;5047801;28;20115;-71
2022/03/13 00:48:10;;;;;;;9.07;5.60;;;;;;;;;;5063906;28;20135;-71
2022/03/13 00:50:37;;;;;;;11.18;6.35;;;;;;;;;;5063892;28;20119;-70
2022/03/13 00:53:03;;;;;;;8.73;5.20;;;;;;;;;;5064481;28;20041;-70
2022/03/13 00:55:29;;;;;;;9.70;6.00;;;;;;;;;;5063778;28;20101;-71
2022/03/13 00:57:55;;;;;;;8.48;5.35;;;;;;;;;;5047671;28;20518;-70
2022/03/13 01:00:21;;;;;;;8.70;5.78;;;;;;;;;;5063118;28;20055;-70
2022/03/13 01:02:47;;;;;;;8.68;5.35;;;;;;;;;;5064098;28;20044;-70
2022/03/13 01:05:21;;;;;;;8.52;5.80;;;;;;;;;;5063555;28;20045;-71
2022/03/13 01:07:47;;;;;;;8.73;6.03;;;;;;;;;;5064605;28;20429;-70
2022/03/13 01:10:13;;;;;;;9.40;6.05;;;;;;;;;;5064903;28;20036;-71
2022/03/13 01:12:39;;;;;;;9.15;6.03;;;;;;;;;;5064353;28;20045;-70
2022/03/13 01:15:05;;;;;;;9.18;5.85;;;;;;;;;;5063813;28;20048;-70
2022/03/13 01:17:31;;;;;;;9.05;5.55;;;;;;;;;;5063710;28;20045;-70
2022/03/13 01:19:58;;;;;;;13.02;6.05;;;;;;;;;;5064320;28;20102;-71
2022/03/13 01:22:24;;;;;;;9.50;6.05;;;;;;;;;;5063850;28;20036;-71
2022/03/13 01:24:51;;;;;;;8.70;5.97;;;;;;;;;;5064357;28;20678;-70
2022/03/13 01:27:17;;;;;;;9.25;6.03;;;;;;;;;;5046739;28;20585;-71
2022/03/13 01:29:44;;;;;;;9.10;5.97;;;;;;;;;;5046389;28;20049;-71
2022/03/13 01:32:12;;;;;;;8.57;5.35;;;;;;;;;;5062617;28;20075;-70
2022/03/13 01:34:46;;;;;;;8.80;5.82;;;;;;;;;;5047429;28;20044;-70
2022/03/13 01:37:35;;;;;;;8.55;5.43;;;;;;;;;;5062552;28;20037;-70
2022/03/13 01:40:04;;;;;;;9.40;5.78;;;;;;;;;;5058803;28;20117;-70
2022/03/13 01:42:31;;;;;;;8.80;5.55;;;;;;;;;;5063280;28;20168;-70
2022/03/13 01:44:57;;;;;;;9.32;5.90;;;;;;;;;;5063655;28;20044;-71
2022/03/13 01:47:23;;;;;;;9.25;5.78;;;;;;;;;;5062927;28;20053;-70
2022/03/13 01:49:49;;;;;;;8.32;5.82;;;;;;;;;;5063805;28;20048;-71
2022/03/13 01:52:16;;;;;;;9.32;5.75;;;;;;;;;;5062544;28;20120;-70
2022/03/13 01:54:44;;;;;;;9.00;5.72;;;;;;;;;;5064512;28;20383;-70
2022/03/13 01:57:11;;;;;;;9.18;5.93;;;;;;;;;;5061856;28;20117;-71
2022/03/13 01:59:37;;;;;;;8.93;5.55;;;;;;;;;;5063843;28;20048;-70
2022/03/13 02:02:03;;;;;;;10.50;6.18;;;;;;;;;;5061727;28;20087;-70
2022/03/13 02:04:31;;;;;;;9.23;6.00;;;;;;;;;;5063765;28;20079;-71
2022/03/13 02:06:58;;;;;;;9.63;6.20;;;;;;;;;;5055326;28;20052;-70
2022/03/13 02:09:24;;;;;;;8.68;5.90;;;;;;;;;;5028665;28;20636;-70
2022/03/13 02:11:51;;;;;;;8.70;5.28;;;;;;;;;;5061187;28;20106;-70
2022/03/13 02:14:21;;;;;;;9.73;5.93;;;;;;;;;;5063212;28;20036;-71
2022/03/13 02:16:47;;;;;;;8.82;5.53;;;;;;;;;;5063538;28;20051;-71
2022/03/13 02:19:13;;;;;;;9.35;6.55;;;;;;;;;;5063228;28;20072;-70
2022/03/13 02:21:44;;;;;;;9.15;6.18;;;;;;;;;;5063410;28;20543;-70
2022/03/13 02:24:13;;;;;;;10.93;6.35;;;;;;;;;;5063395;28;20072;-71
2022/03/13 02:26:42;;;;;;;9.65;6.20;;;;;;;;;;5061346;28;20053;-70
2022/03/13 02:29:11;;;;;;;11.13;6.63;;;;;;;;;;5062755;28;20076;-71
2022/03/13 02:31:38;;;;;;;10.30;6.68;;;;;;;;;;5061697;28;20046;-71
2022/03/13 02:34:05;;;;;;;8.77;5.80;;;;;;;;;;5063242;28;20039;-71
2022/03/13 02:36:31;;;;;;;10.93;5.88;;;;;;;;;;5062425;28;20051;-71
2022/03/13 02:38:58;;;;;;;9.20;5.85;;;;;;;;;;5063057;28;20036;-70
2022/03/13 02:41:26;;;;;;;9.80;6.30;;;;;;;;;;5061187;28;20067;-70
2022/03/13 02:43:52;;;;;;;9.15;5.97;;;;;;;;;;5046110;28;20044;-70
2022/03/13 02:46:20;;;;;;;10.27;6.07;;;;;;;;;;5061176;28;20091;-70
2022/03/13 02:48:46;;;;;;;8.40;5.93;;;;;;;;;;5064918;28;20045;-70
2022/03/13 02:51:12;;;;;;;10.43;6.70;;;;;;;;;;5062554;28;20127;-70
2022/03/13 02:53:38;;;;;;;9.60;5.80;;;;;;;;;;5063556;28;20120;-70
2022/03/13 02:56:05;;;;;;;10.90;5.88;;;;;;;;;;5045104;28;20493;-70
2022/03/13 02:58:31;;;;;;;10.15;6.45;;;;;;;;;;5062508;28;20071;-70
2022/03/13 03:00:57;;;;;;;9.45;6.53;;;;;;;;;;5045696;28;20120;-70
2022/03/13 03:03:26;;;;;;;9.95;6.57;;;;;;;;;;5030731;28;21119;-70
2022/03/13 03:05:53;;;;;;;9.75;6.90;;;;;;;;;;5029384;28;20053;-70
2022/03/13 03:08:19;;;;;;;10.43;6.10;;;;;;;;;;5043046;28;20056;-70
2022/03/13 03:10:45;;;;;;;9.70;6.55;;;;;;;;;;5048947;28;20079;-70
2022/03/13 03:13:12;;;;;;;9.70;6.53;;;;;;;;;;5062198;28;20603;-70
2022/03/13 03:15:39;;;;;;;10.55;6.03;;;;;;;;;;5060557;28;20044;-71
2022/03/13 03:18:06;;;;;;;10.15;6.28;;;;;;;;;;5062554;28;20044;-70
2022/03/13 03:20:34;;;;;;;10.93;6.78;;;;;;;;;;5061313;28;20048;-70
2022/03/13 03:23:01;;;;;;;10.07;6.68;;;;;;;;;;5062363;28;20048;-70
2022/03/13 03:25:27;;;;;;;9.93;6.60;;;;;;;;;;5061714;28;20554;-70
2022/03/13 03:27:54;;;;;;;9.88;6.68;;;;;;;;;;5061908;28;20637;-70
2022/03/13 03:30:25;;;;;;;10.60;6.65;;;;;;;;;;5061534;28;20033;-70
2022/03/13 03:32:52;;;;;;;10.05;6.22;;;;;;;;;;5060964;28;20123;-70
2022/03/13 03:35:19;;;;;;;9.52;6.30;;;;;;;;;;5062081;28;20041;-70
2022/03/13 03:37:46;;;;;;;10.15;6.43;;;;;;;;;;5045580;28;20045;-70
2022/03/13 03:40:12;;;;;;;9.50;6.38;;;;;;;;;;5060973;28;20115;-70
2022/03/13 03:42:38;;;;;;;9.63;6.03;;;;;;;;;;5061827;28;20048;-70
2022/03/13 03:45:05;;;;;;;11.27;6.63;;;;;;;;;;5061032;28;20039;-70
2022/03/13 03:47:31;;;;;;;13.02;6.53;;;;;;;;;;5062076;28;20047;-70
2022/03/13 03:49:57;;;;;;;10.77;6.63;;;;;;;;;;5061816;28;20129;-69
2022/03/13 03:52:23;;;;;;;9.63;6.38;;;;;;;;;;5061508;28;20076;-70
2022/03/13 03:54:49;;;;;;;9.60;6.00;;;;;;;;;;5048516;28;20033;-70
2022/03/13 03:57:15;;;;;;;11.90;6.93;;;;;;;;;;5063918;28;20440;-70
2022/03/13 03:59:41;;;;;;;11.07;6.45;;;;;;;;;;5067261;28;20083;-70
2022/03/13 04:02:07;;;;;;;9.95;6.20;;;;;;;;;;5063990;28;20048;-70
2022/03/13 04:04:33;;;;;;;10.43;6.85;;;;;;;;;;5065879;28;20072;-70
2022/03/13 04:06:59;;;;;;;9.80;6.45;;;;;;;;;;5048992;28;20049;-70
2022/03/13 04:09:25;;;;;;;10.18;6.43;;;;;;;;;;5046392;28;20049;-70
2022/03/13 04:11:52;;;;;;;9.63;6.78;;;;;;;;;;5060210;28;20521;-70
2022/03/13 04:14:20;;;;;;;10.93;6.53;;;;;;;;;;5065637;28;20048;-70
2022/03/13 04:16:46;;;;;;;10.25;6.88;;;;;;;;;;5063849;28;20111;-70
2022/03/13 04:19:12;;;;;;;9.20;6.45;;;;;;;;;;5065203;28;20155;-70
2022/03/13 04:21:40;;;;;;;10.95;6.80;;;;;;;;;;5048090;28;20052;-70
2022/03/13 04:24:07;;;;;;;10.05;6.40;;;;;;;;;;5048769;28;20048;-70
2022/03/13 04:26:33;;;;;;;10.70;7.10;;;;;;;;;;5064507;28;20418;-70
2022/03/13 04:28:59;;;;;;;11.88;6.55;;;;;;;;;;5064930;28;20067;-70
2022/03/13 04:31:25;;;;;;;10.73;6.63;;;;;;;;;;5064391;28;20037;-70
2022/03/13 04:33:51;;;;;;;9.55;6.75;;;;;;;;;;5064688;28;20136;-70
2022/03/13 04:36:21;;;;;;;9.70;5.90;;;;;;;;;;5064059;28;20588;-70
2022/03/13 04:38:47;;;;;;;10.23;6.47;;;;;;;;;;5065310;28;20573;-70
2022/03/13 04:41:13;;;;;;;10.57;6.72;;;;;;;;;;5064621;28;20137;-70
2022/03/13 04:43:39;;;;;;;10.10;6.50;;;;;;;;;;5064733;28;20052;-70
2022/03/13 04:46:06;;;;;;;10.88;6.93;;;;;;;;;;5063205;28;20093;-70
2022/03/13 04:48:34;;;;;;;9.75;6.55;;;;;;;;;;5064660;28;20131;-70
2022/03/13 04:51:00;;;;;;;9.45;6.15;;;;;;;;;;5064105;28;20070;-70
2022/03/13 04:53:27;;;;;;;9.77;6.65;;;;;;;;;;5047932;28;20047;-70
2022/03/13 04:55:53;;;;;;;10.10;6.60;;;;;;;;;;5047562;28;20602;-70
2022/03/13 04:58:19;;;;;;;8.82;5.95;;;;;;;;;;5064086;28;20048;-70
2022/03/13 05:00:47;;;;;;;9.82;6.30;;;;;;;;;;5064057;28;20087;-70
2022/03/13 05:03:13;;;;;;;10.45;6.90;;;;;;;;;;5064989;28;20052;-70
2022/03/13 05:05:40;;;;;;;10.30;6.72;;;;;;;;;;5047669;28;20044;-70
2022/03/13 05:08:07;;;;;;;12.32;7.20;;;;;;;;;;5048196;28;20044;-70
2022/03/13 05:10:36;;;;;;;10.68;7.15;;;;;;;;;;5063299;28;20037;-70
2022/03/13 05:13:05;;;;;;;9.52;6.78;;;;;;;;;;5063964;28;20052;-70
2022/03/13 05:15:32;;;;;;;10.13;6.97;;;;;;;;;;5064207;28;20037;-70
2022/03/13 05:17:58;;;;;;;10.50;6.90;;;;;;;;;;5063847;28;20663;-70
2022/03/13 05:20:23;;;;;;;10.95;6.75;;;;;;;;;;5062845;28;20052;-70
2022/03/13 05:22:50;;;;;;;10.02;6.38;;;;;;;;;;5047712;28;20105;-70
2022/03/13 05:25:16;;;;;;;9.85;6.60;;;;;;;;;;5046745;28;20735;-70
2022/03/13 05:27:42;;;;;;;8.95;6.38;;;;;;;;;;5062543;28;20055;-70
2022/03/13 05:30:09;;;;;;;9.80;6.75;;;;;;;;;;5060902;28;20036;-70
2022/03/13 05:32:35;;;;;;;10.52;6.75;;;;;;;;;;5043142;28;20045;-70
2022/03/13 05:35:02;;;;;;;9.88;6.50;;;;;;;;;;5027326;28;20067;-70
2022/03/13 05:37:28;;;;;;;10.80;7.13;;;;;;;;;;5064427;28;20041;-70
2022/03/13 05:39:54;;;;;;;9.80;7.18;;;;;;;;;;5064016;28;20397;-70
2022/03/13 05:42:24;;;;;;;9.43;6.65;;;;;;;;;;5045841;28;20783;-70
2022/03/13 05:44:51;;;;;;;9.77;6.70;;;;;;;;;;5063457;28;20199;-70
2022/03/13 05:47:18;;;;;;;11.45;7.00;;;;;;;;;;5061862;28;20041;-71
2022/03/13 05:49:44;;;;;;;10.73;7.20;;;;;;;;;;5067024;28;20044;-70
2022/03/13 05:52:13;;;;;;;10.45;6.88;;;;;;;;;;5065176;28;20048;-70
2022/03/13 05:54:39;;;;;;;10.32;6.65;;;;;;;;;;5067199;28;20124;-70
2022/03/13 05:57:09;;;;;;;9.55;6.00;;;;;;;;;;5065577;28;20574;-70
2022/03/13 05:59:35;;;;;;;9.65;6.68;;;;;;;;;;5066951;28;20051;-70
2022/03/13 06:02:04;;;;;;;9.13;6.15;;;;;;;;;;5065656;28;20044;-70
2022/03/13 06:04:32;;;;;;;10.98;6.85;;;;;;;;;;5067057;28;20509;-70
2022/03/13 06:06:58;;;;;;;9.48;6.07;;;;;;;;;;5063814;28;20047;-70
2022/03/13 06:09:24;;;;;;;9.70;6.80;;;;;;;;;;5064626;28;20386;-71
2022/03/13 06:11:50;;;;;;;8.95;6.20;;;;;;;;;;5062486;28;20048;-71
2022/03/13 06:14:17;;;;;;;10.48;7.18;;;;;;;;;;5064255;28;20479;-71
2022/03/13 06:16:43;;;;;;;9.95;6.68;;;;;;;;;;5061399;28;20381;-70
2022/03/13 06:19:09;;;;;;;10.73;6.65;;;;;;;;;;5062916;28;20051;-71
2022/03/13 06:21:35;;;;;;;10.55;7.03;;;;;;;;;;5062175;28;20051;-71
2022/03/13 06:24:01;;;;;;;10.73;6.22;;;;;;;;;;5063184;28;20040;-71
2022/03/13 06:26:27;;;;;;;9.80;6.60;;;;;;;;;;5061777;28;20415;-70
2022/03/13 06:28:53;;;;;;;9.57;6.53;;;;;;;;;;5062331;28;20711;-71
2022/03/13 06:31:19;;;;;;;9.32;6.50;;;;;;;;;;5061439;28;20040;-71
2022/03/13 06:33:45;;;;;;;10.35;6.80;;;;;;;;;;5046785;28;20067;-70
2022/03/13 06:36:11;;;;;;;12.43;6.97;;;;;;;;;;5061500;28;20036;-71
2022/03/13 06:38:37;;;;;;;10.13;6.85;;;;;;;;;;5062845;28;20045;-70
2022/03/13 06:41:04;;;;;;;11.95;6.65;;;;;;;;;;5061738;28;20599;-70
2022/03/13 06:43:30;;;;;;;10.57;6.70;;;;;;;;;;5062548;28;20119;-70
2022/03/13 06:45:56;;;;;;;10.02;6.35;;;;;;;;;;5062335;28;20742;-70
2022/03/13 06:48:22;;;;;;;11.77;6.78;;;;;;;;;;5061891;28;20055;-70
2022/03/13 06:50:48;;;;;;;10.13;6.63;;;;;;;;;;5055083;28;20768;-70
2022/03/13 06:53:15;;;;;;;10.45;6.40;;;;;;;;;;5043013;28;20047;-70
2022/03/13 06:55:41;;;;;;;10.88;6.97;;;;;;;;;;5047840;28;20037;-70
2022/03/13 06:58:07;;;;;;;10.73;6.50;;;;;;;;;;5062318;28;20044;-70
2022/03/13 07:00:33;;;;;;;10.45;6.57;;;;;;;;;;5062253;28;20071;-70
2022/03/13 07:02:59;;;;;;;10.32;6.55;;;;;;;;;;5063047;28;20036;-71
2022/03/13 07:05:26;;;;;;;9.98;6.57;;;;;;;;;;5062070;28;20036;-70
2022/03/13 07:07:54;;;;;;;11.73;6.95;;;;;;;;;;5063547;28;20044;-70
2022/03/13 07:10:20;;;;;;;10.68;6.53;;;;;;;;;;5045769;28;20133;-70
2022/03/13 07:12:48;;;;;;;10.25;6.97;;;;;;;;;;5062212;28;20059;-70
2022/03/13 07:15:14;;;;;;;9.88;6.22;;;;;;;;;;5062124;28;20051;-70
2022/03/13 07:17:41;;;;;;;9.90;6.78;;;;;;;;;;5044048;28;20063;-70
2022/03/13 07:20:08;;;;;;;9.75;6.50;;;;;;;;;;5061861;28;20059;-70
2022/03/13 07:22:34;;;;;;;9.55;6.25;;;;;;;;;;5061850;28;20050;-70
2022/03/13 07:25:00;;;;;;;10.85;6.70;;;;;;;;;;5061593;28;20528;-70
2022/03/13 07:27:26;;;;;;;8.95;6.20;;;;;;;;;;5062823;28;20052;-70
2022/03/13 07:29:52;;;;;;;9.90;6.55;;;;;;;;;;5046811;28;20048;-70
2022/03/13 07:32:18;;;;;;;9.82;6.90;;;;;;;;;;5063306;28;20417;-71
2022/03/13 07:34:44;;;;;;;10.63;6.70;;;;;;;;;;5066236;28;20048;-71
2022/03/13 07:37:10;;;;;;;9.85;5.75;;;;;;;;;;5064121;28;20043;-70
2022/03/13 07:39:37;;;;;;;11.85;7.03;;;;;;;;;;5066174;28;20052;-70
2022/03/13 07:42:03;;;;;;;9.50;6.43;;;;;;;;;;5063793;28;20044;-70
2022/03/13 07:44:29;;;;;;;10.82;6.63;;;;;;;;;;5064912;28;20654;-71
2022/03/13 07:46:55;;;;;;;10.88;6.70;;;;;;;;;;5064090;28;20101;-71
2022/03/13 07:49:22;;;;;;;9.80;6.00;;;;;;;;;;5065764;28;20036;-71
2022/03/13 07:51:48;;;;;;;9.52;6.00;;;;;;;;;;5064242;28;20486;-71
2022/03/13 07:54:14;;;;;;;9.88;6.53;;;;;;;;;;5065951;28;20040;-71
2022/03/13 07:56:41;;;;;;;9.63;6.03;;;;;;;;;;5064250;28;20044;-71
2022/03/13 07:59:07;;;;;;;9.52;5.95;;;;;;;;;;5065397;28;20044;-71
2022/03/13 08:01:33;;;;;;;9.77;6.53;;;;;;;;;;5064987;28;20046;-71
2022/03/13 08:04:01;;;;;;;10.20;6.07;;;;;;;;;;5065582;28;20044;-71
2022/03/13 08:06:27;;;;;;;9.18;6.00;;;;;;;;;;5047856;28;20049;-71
2022/03/13 08:08:54;;;;;;;9.63;6.32;;;;;;;;;;5052888;28;20086;-71
2022/03/13 08:11:20;;;;;;;9.52;6.35;;;;;;;;;;5051034;28;20094;-71
2022/03/13 08:13:48;;;;;;;9.70;5.82;;;;;;;;;;5045511;28;20052;-71
2022/03/13 08:16:14;;;;;;;9.00;5.80;;;;;;;;;;5044945;28;20110;-71
2022/03/13 08:18:40;;;;;;;10.35;6.75;;;;;;;;;;5037094;28;20048;-71
2022/03/13 08:21:06;;;;;;;9.10;6.18;;;;;;;;;;5033589;28;20067;-71
2022/03/13 08:23:32;;;;;;;9.25;5.97;;;;;;;;;;5047835;28;20032;-71
2022/03/13 08:25:58;;;;;;;10.10;6.50;;;;;;;;;;5047417;28;20064;-72
2022/03/13 08:28:24;;;;;;;14.65;6.07;;;;;;;;;;5028872;28;20056;-72
2022/03/13 08:30:50;;;;;;;13.02;5.65;;;;;;;;;;5035304;28;20033;-72
2022/03/13 08:33:16;;;;;;;9.80;5.45;;;;;;;;;;5064716;28;20080;-72
2022/03/13 08:35:43;;;;;;;9.43;5.63;;;;;;;;;;5063647;28;20080;-72
2022/03/13 08:38:09;;;;;;;9.05;5.80;;;;;;;;;;5065235;28;20642;-71
2022/03/13 08:40:35;;;;;;;10.48;5.75;;;;;;;;;;5059888;28;20068;-72
2022/03/13 08:43:01;;;;;;;9.10;5.70;;;;;;;;;;5046966;28;20471;-73
2022/03/13 08:45:27;;;;;;;10.45;5.82;;;;;;;;;;5034302;28;20051;-73
2022/03/13 08:47:53;;;;;;;12.57;6.03;;;;;;;;;;5035968;28;20032;-73
2022/03/13 08:50:20;;;;;;;9.20;5.68;;;;;;;;;;5051933;28;20126;-73
2022/03/13 08:52:46;;;;;;;10.48;6.20;;;;;;;;;;5049752;28;20044;-73
2022/03/13 08:55:14;;;;;;;9.25;5.70;;;;;;;;;;5049181;28;20029;-73
2022/03/13 08:57:43;;;;;;;10.95;6.57;;;;;;;;;;5046543;28;20044;-73
2022/03/13 09:00:11;;;;;;;10.25;6.72;;;;;;;;;;5035411;28;20451;-73
2022/03/13 09:02:37;;;;;;;9.35;6.47;;;;;;;;;;5015355;28;20067;-73
2022/03/13 09:05:03;;;;;;;13.57;6.95;;;;;;;;;;5038580;28;20037;-73
2022/03/13 09:07:29;;;;;;;10.70;6.97;;;;;;;;;;5044062;28;20663;-72
2022/03/13 09:09:55;;;;;;;10.77;7.18;;;;;;;;;;5046391;28;20041;-73
2022/03/13 09:12:21;;;;;;;10.82;6.78;;;;;;;;;;5042640;28;20576;-73
2022/03/13 09:14:47;;;;;;;10.38;6.88;;;;;;;;;;5050794;28;20032;-73
2022/03/13 09:17:15;;;;;;;10.50;6.95;;;;;;;;;;5028817;28;20069;-73
2022/03/13 09:19:41;;;;;;;10.70;6.85;;;;;;;;;;5043141;28;20056;-73
2022/03/13 09:22:08;;;;;;;14.43;8.73;;;;;;;;;;5040686;28;20049;-74
2022/03/13 09:24:34;;;;;;;13.07;8.27;;;;;;;;;;5043780;28;20044;-73
2022/03/13 09:27:00;;;;;;;15.23;7.32;;;;;;;;;;5052938;28;20064;-71
2022/03/13 09:29:26;;;;;;;11.52;7.00;;;;;;;;;;5063778;28;20048;-72
2022/03/13 09:31:52;;;;;;;12.23;7.47;;;;;;;;;;5062702;28;20048;-71
2022/03/13 09:34:18;;;;;;;13.63;7.15;;;;;;;;;;5063471;28;20077;-71
2022/03/13 09:36:44;;;;;;;13.15;8.77;;;;;;;;;;5058646;28;20106;-71
2022/03/13 09:39:10;;;;;;;14.80;9.05;;;;;;;;;;5014269;28;20662;-71
2022/03/13 09:41:40;;;;;;;15.48;9.90;;;;;;;;;;5010722;28;20048;-71
2022/03/13 09:44:07;;;;;;;15.05;8.73;;;;;;;;;;5043422;28;20047;-71
2022/03/13 09:46:35;;;;;;;11.55;7.75;;;;;;;;;;5055306;28;20047;-71
2022/03/13 09:49:01;;;;;;;11.80;7.28;;;;;;;;;;5063380;28;20056;-71
2022/03/13 09:51:27;;;;;;;15.98;8.80;;;;;;;;;;5060558;28;20044;-71
2022/03/13 09:53:53;;;;;;;14.57;8.00;;;;;;;;;;5059057;28;20253;-71
2022/03/13 09:56:19;;;;;;;18.58;8.07;;;;;;;;;;5029785;28;20053;-70
2022/03/13 09:58:45;;;;;;;16.92;7.88;;;;;;;;;;5042076;28;20037;-70
2022/03/13 10:01:12;;;;;;;14.68;8.32;;;;;;;;;;5052183;28;20114;-71
2022/03/13 10:03:38;;;;;;;18.08;8.07;;;;;;;;;;5045582;28;20040;-70
2022/03/13 10:06:05;;;;;;;21.17;7.72;;;;;;;;;;5045076;28;20041;-70
2022/03/13 10:08:32;;;;;;;15.13;7.22;;;;;;;;;;5043700;28;20174;-70
2022/03/13 10:10:58;;;;;;;16.02;7.93;;;;;;;;;;5027810;28;20112;-70
2022/03/13 10:13:35;;;;;;;14.15;7.35;;;;;;;;;;5025583;28;20047;-70
2022/03/13 10:16:02;;;;;;;14.90;7.55;;;;;;;;;;5043943;28;20040;-70
2022/03/13 10:18:28;;;;;;;13.43;7.90;;;;;;;;;;5048721;28;20052;-70
2022/03/13 10:20:55;;;;;;;13.60;8.00;;;;;;;;;;5049679;28;20044;-71
2022/03/13 10:23:22;;;;;;;14.50;7.57;;;;;;;;;;5053663;28;20041;-70
2022/03/13 10:25:52;;;;;;;12.25;7.05;;;;;;;;;;5043699;28;20105;-70
2022/03/13 10:28:22;;;;;;;10.82;7.10;;;;;;;;;;5047398;28;20070;-71
2022/03/13 10:31:07;;;;;;;13.77;7.13;;;;;;;;;;5033353;28;20144;-70
2022/03/13 10:33:52;;;;;;;13.77;6.97;;;;;;;;;;5041184;28;20394;-71
2022/03/13 10:36:21;;;;;;;14.45;7.38;;;;;;;;;;5057711;28;20051;-70
2022/03/13 10:38:48;;;;;;;10.75;7.00;;;;;;;;;;5064206;28;20041;-71
2022/03/13 10:41:14;;;;;;;15.57;7.72;;;;;;;;;;5056881;28;20152;-70
2022/03/13 10:43:43;;;;;;;13.63;7.38;;;;;;;;;;5030817;28;20036;-70
2022/03/13 10:46:10;;;;;;;13.13;7.88;;;;;;;;;;5044867;28;20120;-71
2022/03/13 10:48:42;;;;;;;12.50;7.07;;;;;;;;;;5044707;28;20534;-71
2022/03/13 10:51:08;;;;;;;16.23;7.05;;;;;;;;;;5052897;28;20506;-71
2022/03/13 10:53:38;;;;;;;12.55;7.25;;;;;;;;;;5051538;28;20040;-71
2022/03/13 10:56:07;;;;;;;11.27;6.55;;;;;;;;;;5050814;28;20044;-71
2022/03/13 10:58:35;;;;;;;15.43;7.15;;;;;;;;;;5063951;28;20063;-70
2022/03/13 11:01:12;;;;;;;11.95;7.53;;;;;;;;;;5054599;28;20052;-70
2022/03/13 11:03:47;;;;;;;11.27;6.93;;;;;;;;;;5043501;28;20123;-70
2022/03/13 11:06:13;;;;;;;13.20;7.00;;;;;;;;;;5052314;28;20049;-70
2022/03/13 11:08:41;;;;;;;12.00;6.68;;;;;;;;;;5063181;28;20043;-70
2022/03/13 11:11:07;;;;;;;10.07;6.60;;;;;;;;;;5059020;28;20058;-70
2022/03/13 11:13:35;;;;;;;12.32;7.15;;;;;;;;;;5031824;28;20045;-70
2022/03/13 11:16:03;;;;;;;12.63;7.60;;;;;;;;;;5044242;28;20040;-70
2022/03/13 11:18:32;;;;;;;13.25;7.07;;;;;;;;;;5034104;28;20072;-71
2022/03/13 11:20:58;;;;;;;11.40;6.95;;;;;;;;;;5031659;28;20037;-70
2022/03/13 11:23:24;;;;;;;10.82;6.57;;;;;;;;;;5045237;28;20056;-70
2022/03/13 11:25:55;;;;;;;12.57;6.90;;;;;;;;;;5045751;28;20053;-70
2022/03/13 11:28:21;;;;;;;11.23;6.70;;;;;;;;;;5046221;28;20126;-70
2022/03/13 11:30:47;;;;;;;12.80;7.38;;;;;;;;;;5051322;28;20045;-70
2022/03/13 11:33:32;;;;;;;11.23;6.32;;;;;;;;;;5065970;28;20044;-70
2022/03/13 11:36:17;;;;;;;10.60;6.50;;;;;;;;;;5064994;28;20044;-70
2022/03/13 11:39:00;;;;;;;12.63;7.18;;;;;;;;;;5066531;28;20033;-71
2022/03/13 11:41:42;;;;;;;12.75;6.80;;;;;;;;;;5049034;28;20052;-70
2022/03/13 11:44:28;;;;;;;15.27;6.85;;;;;;;;;;5066052;28;20054;-70
2022/03/13 11:46:55;;;;;;;14.68;7.85;;;;;;;;;;5037680;28;20055;-70
2022/03/13 11:49:31;;;;;;;12.25;7.85;;;;;;;;;;5046028;28;20037;-70
2022/03/13 11:52:23;;;;;;;14.40;7.78;;;;;;;;;;5041512;28;21067;-70
2022/03/13 11:54:53;;;;;;;14.88;7.47;;;;;;;;;;5012931;28;20136;-70
2022/03/13 11:57:20;;;;;;;12.98;8.07;;;;;;;;;;5020574;28;20036;-70
2022/03/13 11:59:49;;;;;;;16.45;9.25;;;;;;;;;;5061222;28;20043;-70
2022/03/13 12:02:34;;;;;;;20.42;10.10;;;;;;;;;;5063844;28;20076;-70
2022/03/13 12:05:19;;;;;;;16.38;8.85;;;;;;;;;;5040572;28;20045;-67
2022/03/13 12:07:54;;;;;;;13.52;8.63;;;;;;;;;;5038409;28;20045;-68
2022/03/13 12:10:31;;;;;;;15.30;8.88;;;;;;;;;;5046944;28;20051;-68
2022/03/13 12:13:06;;;;;;;16.27;9.35;;;;;;;;;;5061006;28;20076;-68
2022/03/13 12:15:33;;;;;;;18.77;9.77;;;;;;;;;;5051259;28;20128;-69
2022/03/13 12:18:01;;;;;;;15.20;9.70;;;;;;;;;;5036561;28;20037;-68
2022/03/13 12:20:31;;;;;;;14.48;8.43;;;;;;;;;;5058573;28;20052;-69
2022/03/13 12:22:59;;;;;;;18.48;9.07;;;;;;;;;;5045187;28;20106;-70
2022/03/13 12:25:25;;;;;;;18.95;9.13;;;;;;;;;;5050113;28;20091;-70
2022/03/13 12:27:52;;;;;;;20.38;10.15;;;;;;;;;;5031948;28;20043;-70
2022/03/13 12:30:25;;;;;;;21.77;9.90;;;;;;;;;;5051054;28;20081;-70
2022/03/13 12:32:57;;;;;;;18.75;9.68;;;;;;;;;;5050951;28;20091;-69
2022/03/13 12:35:23;;;;;;;16.20;8.65;;;;;;;;;;5048019;28;20126;-70
2022/03/13 12:37:57;;;;;;;16.45;8.98;;;;;;;;;;5047975;28;20029;-70
2022/03/13 12:40:24;;;;;;;14.23;8.70;;;;;;;;;;5054722;28;20055;-70
2022/03/13 12:42:54;;;;;;;16.38;8.45;;;;;;;;;;5050740;28;20625;-70
2022/03/13 12:45:21;;;;;;;14.38;8.75;;;;;;;;;;5047319;28;20581;-70
2022/03/13 12:47:49;;;;;;;23.13;10.55;;;;;;;;;;5064932;28;20044;-70
2022/03/13 12:50:17;;;;;;;17.10;10.25;;;;;;;;;;5058018;28;20041;-69
2022/03/13 12:52:44;;;;;;;17.08;11.32;;;;;;;;;;5048126;28;20541;-69
2022/03/13 12:55:10;;;;;;;18.40;11.80;;;;;;;;;;5063909;28;20048;-69
2022/03/13 12:57:37;;;;;;;17.98;10.95;;;;;;;;;;5038443;28;20049;-68
2022/03/13 13:00:05;;;;;;;19.08;11.52;;;;;;;;;;5033379;28;20037;-69
2022/03/13 13:02:36;;;;;;;16.38;11.38;;;;;;;;;;5048602;28;20079;-68
2022/03/13 13:05:06;;;;;;;24.08;11.00;;;;;;;;;;5044334;28;20123;-69
2022/03/13 13:07:34;;;;;;;22.98;11.60;;;;;;;;;;5044767;28;20048;-68
2022/03/13 13:10:01;;;;;;;22.55;11.32;;;;;;;;;;5043380;28;20072;-69
2022/03/13 13:12:30;;;;;;;20.42;11.13;;;;;;;;;;5043691;28;20395;-69
2022/03/13 13:14:56;;;;;;;17.95;11.93;;;;;;;;;;5044529;28;20075;-69
2022/03/13 13:17:25;;;;;;;17.45;10.52;;;;;;;;;;5061767;28;20103;-68
2022/03/13 13:19:56;;;;;;;18.42;11.50;;;;;;;;;;5064403;28;20106;-68
2022/03/13 13:22:25;;;;;;;17.38;10.95;;;;;;;;;;5062519;28;20136;-69
2022/03/13 13:24:56;;;;;;;15.57;9.82;;;;;;;;;;5044428;28;20502;-69
2022/03/13 13:27:28;;;;;;;19.23;10.95;;;;;;;;;;5043229;28;20099;-69
2022/03/13 13:29:54;;;;;;;15.52;10.10;;;;;;;;;;5044100;28;20052;-69
2022/03/13 13:32:21;;;;;;;16.90;9.82;;;;;;;;;;5027826;28;20049;-69
2022/03/13 13:35:00;;;;;;;18.85;10.35;;;;;;;;;;5045606;28;20057;-69
2022/03/13 13:37:26;;;;;;;16.00;9.57;;;;;;;;;;5044177;28;20049;-69
2022/03/13 13:40:05;;;;;;;17.10;9.98;;;;;;;;;;5044399;28;20044;-69
2022/03/13 13:42:32;;;;;;;15.98;9.90;;;;;;;;;;5044252;28;20041;-69
2022/03/13 13:44:59;;;;;;;16.23;9.80;;;;;;;;;;5027623;28;20106;-69
2022/03/13 13:47:25;;;;;;;14.40;9.07;;;;;;;;;;5043672;28;20049;-68
2022/03/13 13:49:51;;;;;;;16.77;9.32;;;;;;;;;;5044486;28;20102;-69
2022/03/13 13:52:17;;;;;;;17.90;9.38;;;;;;;;;;5043800;28;20037;-69
2022/03/13 13:54:44;;;;;;;16.58;9.00;;;;;;;;;;5043911;28;20122;-69
2022/03/13 13:57:21;;;;;;;14.60;9.18;;;;;;;;;;5043500;28;20106;-69
2022/03/13 13:59:49;;;;;;;14.80;9.35;;;;;;;;;;5044702;28;20045;-69
2022/03/13 14:02:17;;;;;;;14.60;8.57;;;;;;;;;;5044556;28;20056;-69
2022/03/13 14:04:45;;;;;;;14.35;8.90;;;;;;;;;;5027184;28;20041;-69
2022/03/13 14:07:11;;;;;;;16.25;8.73;;;;;;;;;;5043587;28;20108;-69
2022/03/13 14:09:38;;;;;;;14.45;8.82;;;;;;;;;;5027222;28;20040;-69
2022/03/13 14:12:05;;;;;;;11.93;7.85;;;;;;;;;;5043384;28;20579;-69
2022/03/13 14:14:31;;;;;;;14.05;8.73;;;;;;;;;;5027043;28;20410;-69
2022/03/13 14:16:57;;;;;;;13.68;8.48;;;;;;;;;;5026289;28;20032;-69
2022/03/13 14:19:24;;;;;;;12.63;8.15;;;;;;;;;;5043191;28;20037;-68
2022/03/13 14:21:50;;;;;;;13.73;7.63;;;;;;;;;;5043373;28;20045;-69
2022/03/13 14:24:16;;;;;;;12.30;8.05;;;;;;;;;;5043254;28;20194;-69
2022/03/13 14:26:42;;;;;;;11.90;7.45;;;;;;;;;;5043996;28;20071;-69
2022/03/13 14:29:09;;;;;;;14.02;8.30;;;;;;;;;;5042634;28;20041;-69
2022/03/13 14:31:35;;;;;;;11.45;7.35;;;;;;;;;;5043341;28;20073;-68
2022/03/13 14:34:01;;;;;;;11.35;7.78;;;;;;;;;;5044395;28;20044;-69
2022/03/13 14:36:27;;;;;;;11.35;7.25;;;;;;;;;;5042790;28;20041;-68